createdAt,value
2018-12-16T00:00:28.937Z,169.90
2018-12-16T00:02:57.944Z,174.40
2018-12-16T00:05:26.825Z,178.93
2018-12-16T00:07:55.621Z,180.70
2018-12-16T00:10:24.513Z,179.90
2018-12-16T00:12:53.312Z,175.27
2018-12-16T00:15:22.096Z,181.10
2018-12-16T00:17:51.109Z,182.50
2018-12-16T00:20:19.893Z,191.47
2018-12-16T00:22:48.741Z,178.53
2018-12-16T00:25:17.993Z,174.87
2018-12-16T00:27:46.796Z,164.80
2018-12-16T00:30:15.603Z,165.47
2018-12-16T00:32:44.909Z,159.70
2018-12-16T00:35:13.693Z,167.87
2018-12-16T00:37:42.536Z,169.33
2018-12-16T00:40:11.440Z,154.57
2018-12-16T00:42:40.273Z,169.73
2018-12-16T00:45:09.348Z,177.60
2018-12-16T00:47:38.228Z,173.40
2018-12-16T00:50:07.189Z,209.07
2018-12-16T00:52:36.608Z,214.10
2018-12-16T00:55:06.141Z,216.20
2018-12-16T00:57:35.345Z,202.80
2018-12-16T01:00:06.101Z,192.97
2018-12-16T01:02:41.130Z,204.03
2018-12-16T01:05:10.584Z,209.80
2018-12-16T01:07:39.497Z,228.53
2018-12-16T01:10:09.426Z,221.03
2018-12-16T01:12:38.449Z,211.97
2018-12-16T01:15:07.756Z,206.33
2018-12-16T01:17:36.741Z,219.13
2018-12-16T01:20:07.035Z,241.80
2018-12-16T01:22:35.946Z,210.33
2018-12-16T01:25:05.123Z,245.83
2018-12-16T01:27:34.125Z,246.57
2018-12-16T01:30:03.195Z,218.80
2018-12-16T01:32:32.180Z,321.80
2018-12-16T01:35:01.180Z,316.43
2018-12-16T01:37:30.285Z,362.13
2018-12-16T01:39:59.106Z,287.03
2018-12-16T01:42:28.002Z,273.70
2018-12-16T01:44:56.820Z,324.33
2018-12-16T01:47:25.633Z,290.03
2018-12-16T01:49:55.025Z,251.90
2018-12-16T01:52:23.813Z,252.03
2018-12-16T01:54:52.705Z,215.30
2018-12-16T01:57:21.636Z,226.93
2018-12-16T01:59:50.521Z,204.17
2018-12-16T02:02:19.409Z,221.93
2018-12-16T02:04:48.205Z,231.13
2018-12-16T02:07:17.037Z,221.40
2018-12-16T02:09:48.775Z,218.67
2018-12-16T02:12:17.688Z,249.10
2018-12-16T02:14:46.578Z,234.47
2018-12-16T02:17:15.486Z,230.10
2018-12-16T02:19:44.505Z,215.27
2018-12-16T02:22:13.304Z,192.23
2018-12-16T02:24:42.125Z,203.10
2018-12-16T02:27:11.014Z,199.30
2018-12-16T02:29:39.858Z,200.33
2018-12-16T02:32:08.656Z,220.93
2018-12-16T02:34:37.532Z,233.67
2018-12-16T02:37:06.353Z,246.93
2018-12-16T02:39:35.139Z,249.63
2018-12-16T02:42:04.074Z,235.47
2018-12-16T02:44:32.981Z,257.03
2018-12-16T02:47:01.894Z,237.20
2018-12-16T02:49:30.799Z,226.70
2018-12-16T02:51:59.711Z,212.97
2018-12-16T02:54:28.617Z,219.77
2018-12-16T02:56:57.700Z,187.40
2018-12-16T02:59:26.505Z,188.07
2018-12-16T03:01:55.319Z,214.03
2018-12-16T03:04:24.114Z,227.83
2018-12-16T03:06:52.906Z,197.60
2018-12-16T03:09:21.856Z,224.83
2018-12-16T03:11:50.752Z,205.63
2018-12-16T03:14:19.674Z,193.77
2018-12-16T03:16:48.599Z,209.13
2018-12-16T03:19:17.605Z,211.67
2018-12-16T03:21:46.408Z,279.90
2018-12-16T03:24:15.375Z,209.53
2018-12-16T03:26:44.401Z,198.70
2018-12-16T03:29:13.302Z,199.90
2018-12-16T03:31:42.303Z,222.07
2018-12-16T03:34:11.195Z,241.73
2018-12-16T03:36:40.153Z,201.83
2018-12-16T03:39:09.061Z,206.07
2018-12-16T03:41:37.968Z,213.50
2018-12-16T03:44:06.757Z,218.90
2018-12-16T03:46:35.660Z,187.97
2018-12-16T03:49:04.480Z,182.70
2018-12-16T03:51:35.244Z,191.43
2018-12-16T03:54:04.199Z,181.17
2018-12-16T03:56:33.200Z,180.10
2018-12-16T03:59:15.308Z,142.17
2018-12-16T04:01:46.736Z,103.23
2018-12-16T04:04:22.458Z,134.83
2018-12-16T04:06:51.512Z,112.60
2018-12-16T04:09:20.414Z,137.43
2018-12-16T04:11:49.331Z,120.60
2018-12-16T04:14:18.258Z,129.80
2018-12-16T04:16:47.155Z,121.90
2018-12-16T04:19:16.060Z,110.50
2018-12-16T04:21:45.108Z,112.87
2018-12-16T04:24:14.050Z,112.23
2018-12-16T04:26:42.952Z,116.40
2018-12-16T04:29:12.039Z,124.07
2018-12-16T04:31:40.953Z,137.60
2018-12-16T04:34:09.833Z,136.83
2018-12-16T04:36:38.736Z,144.80
2018-12-16T04:39:07.798Z,149.93
2018-12-16T04:41:37.414Z,125.30
2018-12-16T04:44:07.332Z,120.50
2018-12-16T04:46:36.372Z,145.97
2018-12-16T04:49:05.168Z,154.67
2018-12-16T04:51:34.068Z,131.27
2018-12-16T04:54:03.257Z,135.73
2018-12-16T04:56:32.154Z,126.10
2018-12-16T04:59:01.144Z,102.30
2018-12-16T05:01:30.095Z,97.53
2018-12-16T05:03:59.017Z,120.97
2018-12-16T05:06:27.804Z,107.53
2018-12-16T05:08:56.596Z,72.90
2018-12-16T05:11:25.500Z,68.50
2018-12-16T05:13:54.559Z,85.60
2018-12-16T05:16:23.337Z,111.40
2018-12-16T05:18:52.155Z,107.63
2018-12-16T05:21:21.036Z,75.37
2018-12-16T05:23:49.931Z,60.10
2018-12-16T05:26:18.824Z,59.10
2018-12-16T05:28:47.716Z,58.23
2018-12-16T05:31:16.495Z,53.07
2018-12-16T05:33:45.292Z,54.27
2018-12-16T05:36:14.123Z,50.70
2018-12-16T05:38:43.041Z,49.07
2018-12-16T05:41:11.839Z,43.87
2018-12-16T05:43:40.749Z,40.40
2018-12-16T05:46:09.918Z,46.07
2018-12-16T05:48:38.848Z,55.73
2018-12-16T05:51:07.739Z,51.30
2018-12-16T05:53:36.543Z,60.73
2018-12-16T05:56:05.344Z,52.30
2018-12-16T05:58:34.161Z,53.07
2018-12-16T06:01:03.114Z,58.33
2018-12-16T06:03:32.018Z,59.90
2018-12-16T06:06:00.807Z,58.77
2018-12-16T06:08:29.797Z,63.20
2018-12-16T06:10:58.597Z,65.27
2018-12-16T06:13:27.429Z,55.17
2018-12-16T06:15:56.384Z,61.20
2018-12-16T06:18:25.282Z,57.23
2018-12-16T06:20:54.170Z,55.93
2018-12-16T06:23:23.054Z,65.63
2018-12-16T06:25:51.869Z,56.37
2018-12-16T06:28:20.769Z,56.97
2018-12-16T06:30:49.952Z,52.23
2018-12-16T06:33:18.844Z,54.03
2018-12-16T06:35:47.631Z,56.53
2018-12-16T06:38:16.528Z,58.60
2018-12-16T06:40:45.408Z,75.10
2018-12-16T06:43:14.225Z,68.07
2018-12-16T06:45:43.136Z,65.03
2018-12-16T06:48:12.076Z,69.83
2018-12-16T06:50:40.980Z,70.93
2018-12-16T06:53:09.776Z,63.77
2018-12-16T06:55:43.334Z,80.63
2018-12-16T06:58:09.559Z,79.87
2018-12-16T07:00:38.360Z,68.93
2018-12-16T07:03:07.369Z,68.90
2018-12-16T07:05:36.146Z,72.23
2018-12-16T07:08:05.048Z,78.63
2018-12-16T07:10:34.225Z,65.90
2018-12-16T07:13:05.884Z,77.80
2018-12-16T07:15:34.700Z,79.97
2018-12-16T07:18:03.559Z,127.50
2018-12-16T07:20:32.496Z,138.67
2018-12-16T07:23:02.000Z,122.00
2018-12-16T07:25:30.895Z,151.73
2018-12-16T07:27:59.839Z,116.23
2018-12-16T07:30:28.781Z,109.20
2018-12-16T07:32:57.669Z,126.03
2018-12-16T07:35:26.761Z,138.13
2018-12-16T07:37:55.575Z,158.33
2018-12-16T07:40:25.160Z,153.73
2018-12-16T07:42:53.990Z,182.73
2018-12-16T07:45:23.017Z,166.50
2018-12-16T07:47:52.284Z,156.93
2018-12-16T07:50:21.197Z,161.97
2018-12-16T07:52:50.207Z,176.47
2018-12-16T07:55:19.080Z,136.23
2018-12-16T07:57:48.115Z,162.73
2018-12-16T08:00:17.544Z,221.37
2018-12-16T08:02:46.336Z,173.07
2018-12-16T08:05:15.305Z,220.90
2018-12-16T08:07:44.173Z,252.70
2018-12-16T08:10:12.997Z,221.80
2018-12-16T08:12:41.905Z,257.93
2018-12-16T08:15:10.857Z,240.87
2018-12-16T08:17:39.850Z,199.50
2018-12-16T08:20:08.823Z,209.57
2018-12-16T08:22:37.723Z,219.77
2018-12-16T08:25:06.786Z,196.27
2018-12-16T08:27:35.598Z,180.10
2018-12-16T08:30:05.996Z,189.87
2018-12-16T08:32:34.893Z,177.87
2018-12-16T08:35:04.594Z,144.63
2018-12-16T08:37:33.594Z,138.03
2018-12-16T08:40:02.552Z,139.13
2018-12-16T08:42:31.448Z,112.03
2018-12-16T08:45:00.253Z,117.73
2018-12-16T08:47:33.058Z,114.43
2018-12-16T08:50:00.209Z,108.70
2018-12-16T08:52:28.998Z,108.50
2018-12-16T08:54:57.893Z,99.47
2018-12-16T08:57:26.686Z,96.93
2018-12-16T08:59:55.592Z,119.37
2018-12-16T09:02:24.482Z,110.87
2018-12-16T09:04:53.626Z,126.10
2018-12-16T09:07:22.636Z,123.60
2018-12-16T09:09:51.540Z,118.77
2018-12-16T09:12:20.857Z,123.23
2018-12-16T09:14:49.738Z,127.90
2018-12-16T09:17:18.673Z,130.37
2018-12-16T09:19:47.673Z,137.90
2018-12-16T09:22:16.658Z,130.87
2018-12-16T09:24:45.573Z,128.67
2018-12-16T09:27:14.377Z,140.70
2018-12-16T09:29:43.171Z,127.03
2018-12-16T09:32:11.981Z,123.93
2018-12-16T09:34:40.912Z,126.07
2018-12-16T09:37:09.820Z,128.60
2018-12-16T09:39:38.712Z,148.57
2018-12-16T09:42:07.617Z,163.20
2018-12-16T09:44:36.654Z,188.13
2018-12-16T09:47:05.557Z,188.27
2018-12-16T09:49:34.484Z,187.00
2018-12-16T09:52:03.292Z,181.37
2018-12-16T09:54:32.208Z,160.93
2018-12-16T09:57:00.976Z,166.53
2018-12-16T09:59:29.802Z,159.67
2018-12-16T10:01:58.690Z,167.40
2018-12-16T10:04:30.485Z,200.90
2018-12-16T10:06:59.381Z,224.43
2018-12-16T10:09:28.167Z,203.20
2018-12-16T10:11:57.052Z,194.17
2018-12-16T10:14:25.843Z,208.00
2018-12-16T10:16:54.646Z,199.30
2018-12-16T10:19:23.540Z,178.60
2018-12-16T10:21:52.352Z,173.93
2018-12-16T10:24:21.304Z,182.87
2018-12-16T10:26:50.341Z,180.40
2018-12-16T10:29:19.241Z,163.67
2018-12-16T10:31:48.148Z,145.60
2018-12-16T10:34:17.180Z,158.80
2018-12-16T10:36:46.089Z,154.77
2018-12-16T10:39:14.896Z,155.73
2018-12-16T10:41:43.820Z,149.20
2018-12-16T10:44:12.720Z,132.40
2018-12-16T10:46:42.572Z,149.47
2018-12-16T10:49:11.411Z,135.63
2018-12-16T10:51:40.322Z,113.07
2018-12-16T10:54:09.129Z,96.23
2018-12-16T10:56:37.939Z,111.13
2018-12-16T10:59:06.825Z,93.83
2018-12-16T11:01:35.673Z,93.73
2018-12-16T11:04:04.592Z,102.90
2018-12-16T11:06:34.672Z,107.27
2018-12-16T11:09:04.432Z,85.00
2018-12-16T11:11:33.250Z,89.77
2018-12-16T11:14:02.112Z,92.23
2018-12-16T11:16:31.068Z,98.30
2018-12-16T11:18:59.904Z,99.00
2018-12-16T11:21:28.787Z,100.10
2018-12-16T11:23:57.709Z,94.77
2018-12-16T11:26:26.506Z,88.50
2018-12-16T11:28:55.391Z,90.07
2018-12-16T11:31:24.573Z,97.63
2018-12-16T11:33:53.457Z,89.17
2018-12-16T11:36:22.371Z,97.73
2018-12-16T11:38:51.260Z,93.37
2018-12-16T11:41:20.261Z,90.57
2018-12-16T11:43:49.193Z,95.33
2018-12-16T11:46:18.088Z,84.77
2018-12-16T11:48:46.982Z,74.70
2018-12-16T11:51:16.015Z,92.13
2018-12-16T11:53:44.809Z,72.37
2018-12-16T11:56:13.918Z,67.00
2018-12-16T11:58:42.828Z,84.67
2018-12-16T12:01:11.628Z,69.97
2018-12-16T12:03:40.528Z,94.67
2018-12-16T12:06:09.517Z,87.63
2018-12-16T12:08:38.508Z,89.40
2018-12-16T12:11:07.437Z,102.33
2018-12-16T12:13:36.333Z,91.33
2018-12-16T12:16:05.162Z,92.70
2018-12-16T12:18:34.646Z,89.03
2018-12-16T12:21:03.618Z,89.43
2018-12-16T12:23:32.624Z,87.43
2018-12-16T12:26:01.594Z,92.03
2018-12-16T12:28:30.652Z,81.43
2018-12-16T12:30:59.629Z,89.27
2018-12-16T12:33:28.522Z,85.10
2018-12-16T12:35:57.340Z,85.47
2018-12-16T12:38:26.170Z,86.80
2018-12-16T12:40:54.954Z,79.97
2018-12-16T12:43:25.041Z,83.70
2018-12-16T12:45:54.187Z,87.13
2018-12-16T12:48:23.606Z,101.53
2018-12-16T12:50:52.430Z,121.67
2018-12-16T12:53:21.332Z,119.23
2018-12-16T12:55:50.148Z,119.77
2018-12-16T12:58:19.945Z,138.33
2018-12-16T13:00:48.841Z,127.17
2018-12-16T13:03:17.747Z,175.10
2018-12-16T13:05:46.596Z,165.50
2018-12-16T13:08:15.497Z,172.87
2018-12-16T13:10:44.401Z,161.87
2018-12-16T13:13:13.692Z,156.33
2018-12-16T13:15:42.632Z,147.50
2018-12-16T13:18:11.557Z,142.00
2018-12-16T13:20:40.438Z,144.47
2018-12-16T13:23:09.264Z,153.37
2018-12-16T13:25:49.200Z,146.57
2018-12-16T13:28:18.081Z,154.80
2018-12-16T13:30:46.930Z,156.37
2018-12-16T13:33:15.767Z,144.47
2018-12-16T13:35:44.710Z,145.67
2018-12-16T13:38:13.573Z,151.90
2018-12-16T13:40:42.604Z,142.03
2018-12-16T13:43:11.452Z,142.77
2018-12-16T13:45:40.299Z,143.97
2018-12-16T13:48:09.295Z,134.63
2018-12-16T13:50:38.313Z,139.93
2018-12-16T13:53:07.169Z,139.07
2018-12-16T13:55:40.785Z,140.50
2018-12-16T13:58:06.984Z,128.93
2018-12-16T14:00:36.422Z,164.27
2018-12-16T14:03:05.382Z,185.07
2018-12-16T14:05:34.205Z,188.83
2018-12-16T14:08:03.237Z,191.37
2018-12-16T14:10:32.243Z,168.50
2018-12-16T14:13:01.189Z,159.60
2018-12-16T14:15:30.110Z,174.73
2018-12-16T14:17:59.083Z,171.67
2018-12-16T14:20:28.113Z,161.57
2018-12-16T14:22:57.121Z,161.40
2018-12-16T14:25:25.928Z,140.97
2018-12-16T14:27:55.008Z,132.40
2018-12-16T14:30:23.960Z,111.73
2018-12-16T14:32:52.789Z,87.03
2018-12-16T14:35:22.089Z,98.97
2018-12-16T14:37:50.945Z,105.13
2018-12-16T14:40:19.983Z,110.93
2018-12-16T14:42:48.900Z,133.87
2018-12-16T14:45:17.840Z,133.17
2018-12-16T14:47:46.779Z,164.27
2018-12-16T14:50:15.622Z,140.60
2018-12-16T14:52:44.461Z,143.17
2018-12-16T14:55:13.350Z,175.00
2018-12-16T14:57:42.349Z,182.23
2018-12-16T15:00:11.706Z,126.57
2018-12-16T15:02:40.624Z,107.60
2018-12-16T15:05:09.676Z,77.20
2018-12-16T15:07:38.616Z,62.40
2018-12-16T15:10:09.635Z,56.77
2018-12-16T15:12:38.600Z,37.37
2018-12-16T15:15:08.680Z,29.67
2018-12-16T15:17:42.743Z,29.00
2018-12-16T15:20:08.730Z,27.63
2018-12-16T15:22:37.660Z,23.67
2018-12-16T15:25:06.825Z,22.23
2018-12-16T15:27:35.835Z,19.20
2018-12-16T15:30:06.943Z,19.23
2018-12-16T15:32:35.964Z,17.33
2018-12-16T15:35:05.973Z,14.27
2018-12-16T15:37:35.101Z,14.33
2018-12-16T15:40:06.444Z,10.23
2018-12-16T15:42:35.884Z,11.13
2018-12-16T15:45:06.596Z,12.43
2018-12-16T15:47:35.641Z,12.67
2018-12-16T15:50:05.698Z,12.93
2018-12-16T15:52:34.599Z,13.27
2018-12-16T15:55:04.518Z,12.53
2018-12-16T15:57:33.461Z,13.53
2018-12-16T16:00:02.452Z,12.70
2018-12-16T16:02:31.433Z,11.50
2018-12-16T16:05:00.359Z,11.20
2018-12-16T16:07:29.284Z,11.00
2018-12-16T16:09:58.218Z,11.00
2018-12-16T16:12:27.146Z,8.10
2018-12-16T16:14:56.300Z,9.90
2018-12-16T16:17:25.169Z,11.87
2018-12-16T16:19:54.105Z,10.63
2018-12-16T16:22:22.949Z,11.77
2018-12-16T16:24:51.780Z,10.80
2018-12-16T16:45:37.024Z,7.43
2018-12-16T16:48:06.897Z,8.10
2018-12-16T16:50:35.829Z,7.47
2018-12-16T16:53:04.845Z,7.07
2018-12-16T16:55:33.686Z,7.40
2018-12-16T16:58:02.592Z,6.03
2018-12-16T17:00:31.525Z,6.40
2018-12-16T17:03:00.536Z,6.43
2018-12-16T17:05:29.573Z,5.60
2018-12-16T17:07:58.490Z,5.47
2018-12-16T17:10:27.575Z,6.00
2018-12-16T17:12:56.487Z,7.87
2018-12-16T17:15:25.405Z,8.37
2018-12-16T17:17:54.501Z,8.57
2018-12-16T17:20:23.368Z,5.87
2018-12-16T17:22:52.869Z,6.27
2018-12-16T17:25:21.896Z,7.17
2018-12-16T17:27:50.812Z,9.20
2018-12-16T17:30:19.845Z,8.47
2018-12-16T17:32:48.868Z,9.70
2018-12-16T17:35:18.849Z,7.93
2018-12-16T17:37:48.014Z,7.50
2018-12-16T17:40:16.890Z,6.53
2018-12-16T17:42:45.689Z,6.77
2018-12-16T17:45:14.625Z,5.87
2018-12-16T17:47:43.784Z,9.43
2018-12-16T17:50:12.677Z,7.60
2018-12-16T17:52:41.625Z,8.87
2018-12-16T17:55:10.679Z,8.53
2018-12-16T17:57:39.605Z,6.87
2018-12-16T18:00:10.713Z,8.37
2018-12-16T18:02:39.670Z,5.53
2018-12-16T18:05:09.198Z,12.33
2018-12-16T18:07:39.648Z,9.50
2018-12-16T18:10:08.809Z,9.23
2018-12-16T18:12:37.731Z,8.47
2018-12-16T18:15:07.601Z,9.67
2018-12-16T18:17:36.431Z,7.80
2018-12-16T18:20:06.710Z,8.17
2018-12-16T18:22:35.657Z,7.90
2018-12-16T18:25:04.922Z,8.07
2018-12-16T18:27:33.853Z,7.87
2018-12-16T18:30:03.625Z,10.47
2018-12-16T18:32:32.449Z,10.67
2018-12-16T18:35:01.267Z,11.70
2018-12-16T18:37:30.728Z,9.63
2018-12-16T18:39:59.748Z,8.17
2018-12-16T18:42:28.557Z,6.87
2018-12-16T18:44:57.479Z,7.37
2018-12-16T18:47:26.304Z,7.00
2018-12-16T18:49:55.125Z,8.07
2018-12-16T18:52:23.963Z,8.33
2018-12-16T18:54:53.554Z,8.97
2018-12-16T18:57:22.422Z,9.43
2018-12-16T18:59:51.394Z,8.47
2018-12-16T19:02:20.382Z,8.63
2018-12-16T19:04:49.396Z,9.77
2018-12-16T19:07:19.141Z,8.57
2018-12-16T19:09:57.318Z,11.40
2018-12-16T19:12:26.861Z,11.80
2018-12-16T19:14:57.128Z,11.37
2018-12-16T19:17:26.039Z,8.77
2018-12-16T19:19:55.071Z,11.13
2018-12-16T19:22:24.870Z,7.27
2018-12-16T19:24:53.750Z,7.40
2018-12-16T19:27:22.566Z,10.17
2018-12-16T19:29:52.385Z,10.00
2018-12-16T19:32:21.196Z,9.67
2018-12-16T19:34:50.296Z,11.07
2018-12-16T19:37:19.212Z,9.23
2018-12-16T19:39:48.997Z,9.97
2018-12-16T19:42:17.821Z,7.90
2018-12-16T19:44:46.869Z,7.30
2018-12-16T19:47:15.683Z,9.83
2018-12-16T19:49:44.605Z,8.83
2018-12-16T19:52:13.565Z,7.37
2018-12-16T19:54:42.577Z,9.80
2018-12-16T19:57:11.731Z,7.33
2018-12-16T19:59:40.570Z,6.07
2018-12-16T20:02:09.549Z,9.13
2018-12-16T20:04:44.364Z,8.87
2018-12-16T20:07:13.195Z,8.90
2018-12-16T20:09:42.961Z,8.40
2018-12-16T20:12:11.912Z,9.33
2018-12-16T20:14:41.762Z,10.47
2018-12-16T20:17:10.610Z,10.03
2018-12-16T20:19:39.613Z,8.77
2018-12-16T20:22:08.564Z,10.30
2018-12-16T20:24:37.494Z,9.53
2018-12-16T20:27:12.020Z,10.23
2018-12-16T20:29:37.519Z,9.47
2018-12-16T20:32:06.327Z,8.90
2018-12-16T20:34:35.249Z,10.20
2018-12-16T20:37:04.188Z,10.70
2018-12-16T20:39:33.124Z,10.93
2018-12-16T20:42:02.026Z,11.53
2018-12-16T20:44:31.442Z,10.00
2018-12-16T20:47:00.272Z,10.63
2018-12-16T20:49:29.213Z,10.90
2018-12-16T20:51:58.038Z,10.40
2018-12-16T20:54:26.841Z,10.43
2018-12-16T20:56:55.744Z,9.63
2018-12-16T20:59:24.672Z,10.57
2018-12-16T21:01:53.500Z,10.97
2018-12-16T21:04:22.400Z,9.90
2018-12-16T21:06:51.237Z,11.00
2018-12-16T21:09:20.589Z,9.37
2018-12-16T21:11:55.000Z,9.23
2018-12-16T21:14:29.212Z,12.00
2018-12-16T21:17:03.720Z,11.33
2018-12-16T21:19:33.002Z,9.87
2018-12-16T21:22:02.239Z,10.10
2018-12-16T21:24:31.339Z,9.80
2018-12-16T21:27:00.516Z,10.83
2018-12-16T21:29:29.444Z,11.73
2018-12-16T21:31:58.453Z,10.53
2018-12-16T21:34:27.272Z,10.73
2018-12-16T21:36:56.172Z,14.33
2018-12-16T21:39:25.069Z,10.33
2018-12-16T21:41:53.880Z,14.53
2018-12-16T21:44:22.702Z,11.53
2018-12-16T21:46:52.470Z,9.50
2018-12-16T21:49:21.362Z,9.77
2018-12-16T21:51:50.262Z,11.67
2018-12-16T21:54:19.180Z,13.30
2018-12-16T21:56:48.101Z,10.23
2018-12-16T21:59:17.003Z,11.10
2018-12-16T22:01:45.823Z,10.80
2018-12-16T22:04:14.635Z,12.27
2018-12-16T22:06:43.668Z,11.83
2018-12-16T22:09:12.505Z,12.57
2018-12-16T22:11:41.438Z,11.97
2018-12-16T22:14:10.451Z,11.07
2018-12-16T22:16:39.280Z,12.13
2018-12-16T22:19:08.211Z,11.93
2018-12-16T22:21:37.225Z,11.60
2018-12-16T22:24:06.038Z,13.87
2018-12-16T22:26:34.857Z,13.90
2018-12-16T22:29:03.885Z,16.33
2018-12-16T22:31:32.695Z,14.53
2018-12-16T22:34:01.920Z,14.27
2018-12-16T22:36:31.429Z,13.07
2018-12-16T22:39:00.248Z,13.20
2018-12-16T22:41:29.145Z,17.07
2018-12-16T22:43:58.204Z,14.57
2018-12-16T22:46:27.316Z,12.43
2018-12-16T22:48:56.120Z,13.73
2018-12-16T22:51:25.017Z,13.03
2018-12-16T22:53:53.930Z,16.33
2018-12-16T22:56:22.855Z,14.83
2018-12-16T22:58:54.488Z,13.53
2018-12-16T23:01:22.842Z,12.73
2018-12-16T23:03:51.681Z,12.63
2018-12-16T23:06:20.658Z,14.37
2018-12-16T23:08:49.572Z,12.00
2018-12-16T23:11:18.585Z,13.43
2018-12-16T23:13:47.398Z,11.60
2018-12-16T23:16:16.430Z,12.33
2018-12-16T23:18:45.531Z,13.07
2018-12-16T23:21:14.328Z,14.30
2018-12-16T23:23:43.245Z,12.93
2018-12-16T23:26:12.090Z,12.60
2018-12-16T23:28:40.943Z,13.30
2018-12-16T23:31:09.884Z,12.97
2018-12-16T23:33:38.926Z,13.77
2018-12-16T23:36:07.946Z,13.00
2018-12-16T23:38:36.749Z,15.37
2018-12-16T23:41:05.700Z,13.63
2018-12-16T23:43:34.605Z,17.10
2018-12-16T23:46:03.560Z,14.17
2018-12-16T23:48:32.353Z,14.90
2018-12-16T23:51:01.181Z,13.13
2018-12-16T23:53:30.629Z,14.83
2018-12-16T23:55:59.500Z,14.57
2018-12-16T23:58:28.413Z,15.40
